Latest Weather Observations for Karratha

IDW60801

Issued at 2:53 pm WST Sunday 24 October 2021 (issued every 10 minutes, with the page automatically refreshed every 10 minutes)

About weather observations | Map of weather stations | Latest weather observations for WA | Other Formats
Station Details ID: 004083 Name: KARRATHA AERO Lat: -20.71 Lon: 116.77 Height: 5.3 m
Data from the previous 72 hours. | See also: Recent months at Karratha
Date/Time
WST
Temp
°C
App
Temp
°C
Dew
Point
°C
Rel
Hum
%
Delta-T
°C
Wind Press
QNH
hPa
Press
MSL
hPa
Rain since
9am
mm
Dir  Spd
km/h
Gust
km/h
Spd
kts
Gust
kts
24/02:30pm 33.5 27.7 10.8 25 13.2 NNE 32 39 17 21 1010.3 1010.3 0.0
24/02:00pm 33.3 27.9 12.3 28 12.5 NE 32 39 17 21 1010.6 1010.6 0.0
24/01:30pm 34.2 28.7 10.7 24 13.7 NE 30 35 16 19 1010.8 1010.8 0.0
24/01:00pm 34.0 29.4 13.5 29 12.5 NE 30 37 16 20 1011.2 1011.2 0.0
24/12:30pm 34.0 29.8 13.5 29 12.4 NE 28 35 15 19 1011.6 1011.6 0.0
24/12:00pm 33.8 29.6 11.0 25 13.3 NE 24 32 13 17 1011.9 1011.9 0.0
24/11:30am 33.2 30.0 14.3 32 11.6 NE 24 30 13 16 1012.2 1012.2 0.0
24/11:00am 33.1 29.9 14.2 32 11.6 NNE 24 28 13 15 1012.4 1012.4 0.0
24/10:30am 32.1 30.1 16.4 39 9.9 NE 22 26 12 14 1012.5 1012.5 0.0
24/10:00am 33.8 31.0 12.7 27 12.6 NE 19 24 10 13 1012.8 1012.8 0.0
24/09:30am 33.8 32.2 11.6 26 13.1 NE 11 17 6 9 1012.7 1012.7 0.0
24/09:00am 33.0 32.4 13.6 31 11.8 NE 9 15 5 8 1012.5 1012.5 0.0
24/08:30am 31.6 31.9 15.1 36 10.2 NNE 7 11 4 6 1012.2 1012.2 0.0
24/08:00am 30.4 29.7 11.9 32 10.8 NE 7 9 4 5 1011.9 1011.9 0.0
24/07:30am 29.2 28.1 10.8 32 10.5 ENE 7 11 4 6 1011.7 1011.7 0.0
24/07:00am 27.5 27.6 14.5 45 7.8 ENE 7 9 4 5 1011.5 1011.5 0.0
24/06:30am 23.5 24.0 15.5 60 4.8 ENE 7 9 4 5 1011.3 1011.3 0.0
24/06:00am 19.9 19.7 13.6 67 3.6 SE 7 9 4 5 1010.9 1010.9 0.0
24/05:30am 19.2 18.7 13.8 71 3.1 SE 9 9 5 5 1010.7 1010.7 0.0
24/05:00am 20.6 21.6 16.4 77 2.5 E 6 7 3 4 1010.4 1010.4 0.0
24/04:30am 21.2 22.4 17.4 79 2.3 E 7 7 4 4 1010.1 1010.1 0.0
24/04:00am 22.0 23.9 19.7 87 1.5 ENE 9 11 5 6 1010.0 1010.0 0.0
24/03:30am 22.4 23.6 19.0 81 2.2 NE 11 13 6 7 1009.8 1009.8 0.0
24/03:00am 22.8 25.0 19.6 82 2.0 NE 7 9 4 5 1009.9 1009.9 0.0
24/02:30am 23.4 25.5 20.2 82 2.1 NNE 9 11 5 6 1009.9 1009.9 0.0
24/02:00am 23.2 26.5 19.2 78 2.5 CALM 0 4 0 2 1010.0 1010.0 0.0
24/01:30am 24.2 26.4 20.3 79 2.5 WSW 9 11 5 6 1010.1 1010.1 0.0
24/01:00am 24.9 26.7 21.2 80 2.4 WSW 13 15 7 8 1010.4 1010.4 0.0
24/12:30am 25.5 26.4 21.6 79 2.6 WSW 19 20 10 11 1010.7 1010.7 0.0
24/12:00am 25.7 26.4 23.0 85 1.8 WSW 24 30 13 16 1011.0 1011.0 0.0
 
Date/Time
WST
Temp
°C
App
Temp
°C
Dew
Point
°C
Rel
Hum
%
Delta-T
°C
Wind Press
QNH
hPa
Press
MSL
hPa
Rain since
9am
mm
Dir  Spd
km/h
Gust
km/h
Spd
kts
Gust
kts
23/11:30pm 25.7 27.5 23.6 88 1.4 WSW 20 24 11 13 1011.4 1011.4 0.0
23/11:00pm 26.4 28.3 23.5 84 2.0 WSW 19 24 10 13 1011.2 1011.2 0.0
23/10:30pm 26.9 28.5 23.2 80 2.5 W 20 28 11 15 1011.5 1011.5 0.0
23/10:00pm 27.3 28.2 21.6 71 3.8 WSW 19 24 10 13 1011.6 1011.6 0.0
23/09:30pm 27.5 28.4 20.8 67 4.4 WSW 17 20 9 11 1011.8 1011.8 0.0
23/09:00pm 27.9 28.3 19.9 61 5.2 WSW 17 20 9 11 1011.8 1011.8 0.0
23/08:30pm 28.8 28.5 17.3 49 7.2 WSW 15 19 8 10 1011.6 1011.6 0.0
23/08:00pm 29.1 29.1 16.3 46 8.0 WSW 11 17 6 9 1011.5 1011.5 0.0
23/07:30pm 29.4 29.2 16.6 46 8.0 WSW 13 17 7 9 1011.3 1011.3 0.0
23/07:00pm 30.3 29.9 15.2 40 9.3 NW 11 15 6 8 1011.0 1011.0 0.0
23/06:30pm 30.7 30.0 15.5 39 9.4 NW 13 17 7 9 1010.6 1010.6 0.0
23/06:00pm 31.3 30.1 14.0 35 10.5 NNW 13 19 7 10 1010.4 1010.4 0.0
23/05:30pm 31.6 30.0 13.8 33 10.8 NNW 15 20 8 11 1010.4 1010.4 0.0
23/05:00pm 33.2 30.1 11.7 27 12.7 NNW 19 26 10 14 1010.4 1010.4 0.0
23/04:30pm 35.0 31.8 12.0 25 13.7 NNW 20 26 11 14 1010.3 1010.3 0.0
23/04:00pm 35.8 33.0 13.3 26 13.7 N 20 26 11 14 1010.5 1010.5 0.0
23/03:30pm 35.7 33.5 14.9 29 13.0 N 20 33 11 18 1010.6 1010.6 0.0
23/03:00pm 35.9 29.9 7.0 17 16.0 NNE 28 35 15 19 1010.7 1010.7 0.0
23/02:30pm 36.0 29.4 6.2 16 16.3 NNE 30 35 16 19 1010.8 1010.8 0.0
23/02:00pm 36.0 29.4 6.2 16 16.3 NNE 30 37 16 20 1011.1 1011.1 0.0
23/01:30pm 35.6 30.7 8.4 19 15.4 NNE 24 30 13 16 1011.4 1011.4 0.0
23/01:00pm 35.4 30.2 9.0 20 15.1 NE 26 35 14 19 1011.6 1011.6 0.0
23/12:30pm 35.0 29.0 7.1 18 15.4 NE 28 33 15 18 1012.0 1012.0 0.0
23/12:00pm 34.9 30.6 10.7 23 14.1 NE 24 32 13 17 1012.3 1012.3 0.0
23/11:30am 34.9 29.8 9.3 21 14.6 NNE 26 32 14 17 1012.6 1012.6 0.0
23/11:00am 34.2 29.7 11.4 25 13.4 NNE 26 32 14 17 1012.7 1012.7 0.0
23/10:30am 33.5 29.7 13.5 29 12.1 NE 26 32 14 17 1013.1 1013.1 0.0
23/10:00am 32.9 29.8 13.5 30 11.7 NE 22 26 12 14 1013.3 1013.3 0.0
23/09:30am 32.1 29.8 14.7 35 10.7 NE 20 24 11 13 1013.4 1013.4 0.0
23/09:00am 32.1 29.2 12.3 29 11.7 NE 19 22 10 12 1013.4 1013.4 0.0
23/08:30am 30.9 28.1 11.3 30 11.4 ENE 17 20 9 11 1013.3 1013.3 0.0
23/08:00am 29.3 27.9 13.5 38 9.4 ENE 13 17 7 9 1013.3 1013.3 0.0
23/07:30am 28.1 28.2 16.4 49 7.3 ENE 11 15 6 8 1013.0 1013.0 0.0
23/07:00am 25.7 27.5 19.6 69 3.9 ESE 9 13 5 7 1013.0 1013.0 0.0
23/06:30am 22.6 24.3 18.6 78 2.5 SSE 7 9 4 5 1012.6 1012.6 0.0
23/06:00am 19.9 19.9 17.1 84 1.7 S 13 17 7 9 1012.3 1012.3 0.0
23/05:30am 20.1 21.6 18.1 88 1.2 S 7 9 4 5 1011.8 1011.8 0.0
23/05:00am 20.0 21.4 17.8 87 1.4 SSE 7 13 4 7 1011.6 1011.6 0.0
23/04:30am 21.1 23.5 17.9 82 2.0 WNW 2 7 1 4 1011.3 1011.3 0.0
23/04:00am 21.7 23.9 19.1 85 1.6 WSW 6 7 3 4 1011.0 1011.0 0.0
23/03:30am 21.9 23.8 18.5 81 2.1 SSE 6 11 3 6 1010.8 1010.8 0.0
23/03:00am 23.0 24.2 19.0 78 2.5 SW 11 15 6 8 1011.0 1011.0 0.0
23/02:30am 24.4 26.1 20.1 77 2.8 WSW 11 13 6 7 1011.1 1011.1 0.0
23/02:00am 24.6 25.7 19.7 74 3.2 WSW 13 15 7 8 1011.1 1011.1 0.0
23/01:30am 25.3 26.3 19.4 70 3.8 W 13 17 7 9 1011.4 1011.4 0.0
23/01:00am 24.5 25.7 18.2 68 4.0 SSE 9 13 5 7 1012.1 1012.1 0.0
23/12:30am 26.2 25.9 19.6 67 4.3 W 20 24 11 13 1011.9 1011.9 0.0
23/12:00am 26.4 26.0 19.3 65 4.6 W 20 26 11 14 1012.1 1012.1 0.0
 
Date/Time
WST
Temp
°C
App
Temp
°C
Dew
Point
°C
Rel
Hum
%
Delta-T
°C
Wind Press
QNH
hPa
Press
MSL
hPa
Rain since
9am
mm
Dir  Spd
km/h
Gust
km/h
Spd
kts
Gust
kts
22/11:30pm 26.3 26.1 19.4 66 4.4 WSW 19 22 10 12 1012.4 1012.4 0.0
22/11:00pm 26.7 26.3 19.3 64 4.8 WSW 20 26 11 14 1012.7 1012.7 0.0
22/10:30pm 27.0 26.7 19.6 64 4.8 W 20 24 11 13 1012.8 1012.8 0.0
22/10:00pm 27.2 26.4 19.3 62 5.1 W 22 26 12 14 1012.9 1012.9 0.0
22/09:30pm 27.4 26.7 19.5 62 5.1 WSW 22 26 12 14 1013.0 1013.0 0.0
22/09:00pm 27.5 27.1 19.3 61 5.3 WSW 20 26 11 14 1012.9 1012.9 0.0
22/08:30pm 28.2 26.7 17.7 53 6.6 W 22 28 12 15 1012.7 1012.7 0.0
22/08:00pm 29.0 27.2 16.9 48 7.6 W 22 26 12 14 1012.5 1012.5 0.0
22/07:30pm 29.0 26.8 16.9 48 7.6 W 24 28 13 15 1012.0 1012.0 0.0
22/07:00pm 29.5 27.7 17.0 47 7.9 WSW 22 28 12 15 1011.8 1011.8 0.0
22/06:30pm 30.0 27.8 16.8 45 8.3 W 24 28 13 15 1011.5 1011.5 0.0
22/06:00pm 31.1 28.6 15.1 38 9.8 WSW 22 28 12 15 1011.3 1011.3 0.0
22/05:30pm 32.3 30.4 15.7 36 10.3 W 20 26 11 14 1010.9 1010.9 0.0
22/05:00pm 32.9 30.7 15.0 34 11.1 WNW 20 26 11 14 1010.7 1010.7 0.0
22/04:30pm 34.3 31.5 13.2 28 12.8 NW 20 26 11 14 1010.4 1010.4 0.0
22/04:00pm 34.5 31.6 13.9 29 12.6 NNW 22 28 12 15 1010.2 1010.2 0.0
22/03:30pm 35.6 30.3 8.4 19 15.4 NNE 26 32 14 17 1010.0 1010.0 0.0
22/03:00pm 36.0 30.8 8.7 19 15.6 NNE 26 33 14 18 1010.1 1010.1 0.0
22/02:30pm 36.0 30.6 8.0 18 15.8 NNE 26 35 14 19 1010.3 1010.3 0.0
22/02:00pm 36.0 30.4 10.2 21 15.0 NNE 30 37 16 20 1010.5 1010.5 0.0
22/01:30pm 36.1 30.9 10.3 21 15.1 NNE 28 33 15 18 1011.0 1011.0 0.0
22/01:00pm 34.8 29.1 11.2 23 13.9 NE 32 39 17 21 1011.3 1011.3 0.0
22/12:30pm 34.8 30.0 13.0 26 13.2 NE 30 35 16 19 1011.8 1011.8 0.0
22/12:00pm 34.6 30.2 12.9 27 13.1 NE 28 35 15 19 1012.3 1012.3 0.0
22/11:30am 35.0 31.3 13.8 28 13.0 NE 26 32 14 17 1012.7 1012.7 0.0
22/11:00am 34.3 31.9 13.7 29 12.6 NE 19 26 10 14 1013.1 1013.1 0.0
22/10:30am 34.2 31.7 14.1 29 12.3 ENE 20 26 11 14 1013.2 1013.2 0.0
22/10:00am 32.6 30.3 14.7 34 11.0 ENE 20 28 11 15 1013.4 1013.4 0.0
22/09:30am 30.9 28.5 14.5 37 10.0 ENE 20 28 11 15 1013.6 1013.6 0.0
22/09:00am 30.3 28.2 13.6 36 10.0 ENE 17 20 9 11 1013.8 1013.8 0.0
22/08:30am 28.2 27.5 15.5 46 7.8 ENE 13 17 7 9 1013.7 1013.7 0.0
22/08:00am 28.5 27.7 12.8 38 9.2 ENE 9 13 5 7 1013.7 1013.7 0.0
22/07:30am 27.2 26.1 12.0 38 8.8 SE 9 13 5 7 1013.6 1013.6 0.0
22/07:00am 23.5 23.6 14.5 57 5.3 S 7 9 4 5 1013.3 1013.3 0.0
22/06:30am 21.0 22.1 17.0 78 2.4 S 7 11 4 6 1013.0 1013.0 0.0
22/06:00am 19.3 21.2 18.5 95 0.5 SSW 6 7 3 4 1012.5 1012.5 0.0
22/05:30am 18.8 19.7 18.5 98 0.2 S 11 13 6 7 1012.0 1012.0 0.0
22/05:00am 18.7 19.2 18.4 98 0.2 S 13 13 7 7 1011.7 1011.7 0.0
22/04:30am 18.6 19.4 18.1 97 0.3 S 11 13 6 7 1011.3 1011.3 0.0
22/04:00am 19.2 20.6 18.7 97 0.3 S 9 13 5 7 1011.2 1011.2 0.0
22/03:30am 19.7 20.8 18.9 95 0.5 SSW 11 13 6 7 1011.1 1011.1 0.0
22/03:00am 20.2 21.6 18.7 91 0.9 SSW 9 11 5 6 1011.0 1011.0 0.0
22/02:30am 21.7 23.8 19.4 87 1.5 WSW 7 9 4 5 1011.0 1011.0 0.0
22/02:00am 23.5 25.8 21.4 88 1.4 WNW 11 13 6 7 1011.3 1011.3 0.0
22/01:30am 23.5 25.8 21.4 88 1.4 WNW 11 15 6 8 1011.5 1011.5 0.0
22/01:00am 23.7 25.5 21.2 86 1.6 WNW 13 17 7 9 1011.7 1011.7 0.0
22/12:30am 24.1 24.9 20.6 81 2.3 W 17 24 9 13 1011.9 1011.9 0.0
22/12:00am 24.2 24.4 20.5 80 2.4 W 20 26 11 14 1012.1 1012.1 0.0
 
Date/Time
WST
Temp
°C
App
Temp
°C
Dew
Point
°C
Rel
Hum
%
Delta-T
°C
Wind Press
QNH
hPa
Press
MSL
hPa
Rain since
9am
mm
Dir  Spd
km/h
Gust
km/h
Spd
kts
Gust
kts
21/11:30pm 24.3 23.8 20.0 77 2.8 W 22 28 12 15 1012.5 1012.5 0.0
21/11:00pm 24.4 23.4 19.7 75 3.0 WNW 24 32 13 17 1012.8 1012.8 0.0
21/10:30pm 24.7 23.0 19.8 74 3.2 W 28 35 15 19 1012.7 1012.7 0.0
21/10:00pm 25.0 22.1 18.9 69 3.9 W 32 35 17 19 1012.9 1012.9 0.0
21/09:30pm 25.1 22.3 18.3 66 4.3 W 30 35 16 19 1013.0 1013.0 0.0
21/09:00pm 25.3 22.2 18.5 66 4.3 W 32 39 17 21 1013.0 1013.0 0.0
21/08:30pm 25.2 22.3 17.9 64 4.6 W 30 35 16 19 1012.9 1012.9 0.0
21/08:00pm 25.5 22.1 17.7 62 4.9 W 32 39 17 21 1012.7 1012.7 0.0
21/07:30pm 25.4 22.5 18.8 67 4.2 W 32 39 17 21 1012.7 1012.7 0.0
21/07:00pm 25.8 22.7 18.5 64 4.6 W 32 39 17 21 1012.4 1012.4 0.0
21/06:30pm 26.5 23.1 16.7 55 6.1 W 30 35 16 19 1012.2 1012.2 0.0
21/06:00pm 27.7 25.0 16.6 50 6.9 W 26 30 14 16 1011.8 1011.8 0.0
21/05:30pm 29.0 25.2 12.4 36 9.7 W 24 30 13 16 1011.6 1011.6 0.0
21/05:00pm 29.6 25.4 12.5 35 10.0 W 26 32 14 17 1011.4 1011.4 0.0
21/04:30pm 30.0 25.5 11.5 32 10.7 WNW 26 30 14 16 1011.1 1011.1 0.0
21/04:00pm 30.3 26.3 13.1 34 10.2 WNW 26 32 14 17 1011.0 1011.0 0.0
21/03:30pm 30.9 27.0 13.2 34 10.6 WNW 26 33 14 18 1011.2 1011.2 0.0
21/03:00pm 31.5 27.4 11.3 29 11.7 NW 24 32 13 17 1011.2 1011.2 0.0

Other formats

Comma delimited format used in spreadsheet applications
http://www.bom.gov.au/fwo/IDW60801/IDW60801.95307.axf

JavaScript Object Notation format (JSON) in row-major order
http://www.bom.gov.au/fwo/IDW60801/IDW60801.95307.json

Data quality

Most of these data are generated automatically and are frequently updated. Quality checks on data are not normally performed. It is possible for incorrect values to appear. Refer to information at About Latest Weather Observations and please check the disclaimer before using these data.